Time;durP1;ratioP1;P1;durP2;ratioP2;P2;SDS_P1;SDS_P2;PMS_P1;PMS_P2;Temp;Humidity;BMP_temperature;BMP_pressure;BME280_temperature;BME280_humidity;BME280_pressure;Samples;Min_cycle;Max_cycle;Signal;HPM_P1;HPM_P2
2023/03/27 00:01:11;;;;;;;3.58;1.33;;;;;;;19.83;50.66;99657.22;5073480;28;20490;-47
2023/03/27 00:03:39;;;;;;;4.18;1.52;;;;;;;19.84;50.58;99663.41;5073551;28;20041;-48
2023/03/27 00:06:16;;;;;;;2.78;1.10;;;;;;;19.83;50.57;99656.38;5073714;28;20048;-58
2023/03/27 00:08:45;;;;;;;3.13;1.52;;;;;;;19.83;50.68;99648.31;5073542;28;20044;-58
2023/03/27 00:11:13;;;;;;;3.00;1.48;;;;;;;19.83;50.45;99645.63;5073427;28;20071;-58
2023/03/27 00:13:42;;;;;;;3.00;1.40;;;;;;;19.83;50.53;99653.69;5073370;28;20048;-58
2023/03/27 00:16:22;;;;;;;3.08;1.35;;;;;;;19.81;50.59;99653.00;5073248;28;20114;-48
2023/03/27 00:18:50;;;;;;;3.10;1.27;;;;;;;19.82;50.45;99647.47;5073413;28;20049;-52
2023/03/27 00:21:18;;;;;;;2.63;1.20;;;;;;;19.83;50.66;99645.63;5073279;28;20048;-49
2023/03/27 00:23:45;;;;;;;2.28;1.10;;;;;;;19.81;50.61;99640.44;5072114;28;20048;-46
2023/03/27 00:26:14;;;;;;;4.57;1.20;;;;;;;19.81;50.46;99642.25;5073155;28;20048;-48
2023/03/27 00:28:41;;;;;;;3.00;1.30;;;;;;;19.80;50.56;99636.03;5073134;28;20056;-48
2023/03/27 00:31:11;;;;;;;3.58;1.27;;;;;;;19.81;50.52;99643.13;5073199;28;20044;-49
2023/03/27 00:33:39;;;;;;;2.70;1.25;;;;;;;19.80;50.59;99635.22;5072055;28;20056;-49
2023/03/27 00:36:09;;;;;;;2.15;1.15;;;;;;;19.80;50.52;99628.00;5073541;28;20478;-58
2023/03/27 00:38:38;;;;;;;3.20;1.30;;;;;;;19.80;50.53;99629.84;5072078;28;20045;-58
2023/03/27 00:41:07;;;;;;;2.70;1.20;;;;;;;19.80;50.72;99629.84;5075110;28;20051;-58
2023/03/27 00:43:39;;;;;;;2.97;1.30;;;;;;;19.79;50.60;99631.69;5076804;28;20059;-58
2023/03/27 00:46:14;;;;;;;2.05;0.85;;;;;;;19.79;50.63;99626.31;5076763;28;20055;-58
2023/03/27 00:48:46;;;;;;;3.10;1.08;;;;;;;19.80;50.57;99630.66;5076698;28;20052;-58
2023/03/27 00:51:15;;;;;;;2.55;0.93;;;;;;;19.79;50.42;99629.00;5075662;28;20060;-58
2023/03/27 00:53:43;;;;;;;2.65;1.20;;;;;;;19.78;50.66;99632.69;5076576;28;20055;-58
2023/03/27 00:56:12;;;;;;;3.10;0.90;;;;;;;19.79;50.45;99634.38;5076559;28;20049;-48
2023/03/27 00:58:43;;;;;;;2.35;1.52;;;;;;;19.78;50.38;99626.50;5076500;28;20060;-47
2023/03/27 01:01:13;;;;;;;3.45;1.10;;;;;;;19.78;50.54;99637.22;5075648;28;20067;-50
2023/03/27 01:03:44;;;;;;;3.47;0.88;;;;;;;19.78;50.45;99637.22;5075522;28;20063;-48
2023/03/27 01:06:15;;;;;;;3.00;1.27;;;;;;;19.76;50.54;99634.69;5076656;28;20055;-58
2023/03/27 01:08:45;;;;;;;2.67;1.10;;;;;;;19.78;50.44;99631.88;5076572;28;20041;-58
2023/03/27 01:11:37;;;;;;;2.28;1.00;;;;;;;19.76;50.55;99638.22;5075354;28;20368;-58
2023/03/27 01:14:25;;;;;;;2.47;1.25;;;;;;;19.75;50.34;99641.91;5076254;28;20463;-55
2023/03/27 01:17:06;;;;;;;5.05;1.27;;;;;;;19.76;50.36;99635.53;5075401;28;20071;-58
2023/03/27 01:20:02;;;;;;;2.97;1.17;;;;;;;19.76;50.41;99645.44;5075409;28;20475;-58
2023/03/27 01:23:01;;;;;;;2.63;1.17;;;;;;;19.75;50.36;99627.66;5076293;28;20055;-58
2023/03/27 01:25:48;;;;;;;2.22;1.10;;;;;;;19.74;50.26;99632.19;5070578;28;20060;-48
2023/03/27 01:28:21;;;;;;;2.35;1.05;;;;;;;19.74;50.18;99634.88;5074993;28;20060;-47
2023/03/27 01:31:00;;;;;;;2.28;0.98;;;;;;;19.74;50.31;99642.94;5074838;28;20406;-49
2023/03/27 01:33:40;;;;;;;2.33;1.13;;;;;;;19.74;50.28;99642.09;5075045;28;20056;-48
2023/03/27 01:36:33;;;;;;;2.50;1.02;;;;;;;19.73;50.33;99638.56;5075195;28;20075;-50
2023/03/27 01:39:07;;;;;;;;;;;;;;;19.73;50.49;99638.56;5075370;28;20055;-51
2023/03/27 01:41:44;;;;;;;1.85;0.90;;;;;;;19.73;50.38;99640.41;5076050;28;19928;-50
2023/03/27 01:44:44;;;;;;;2.97;1.10;;;;;;;19.73;50.52;99627.81;5074807;28;20489;-57
2023/03/27 01:47:30;;;;;;;2.60;1.00;;;;;;;19.73;50.42;99627.81;5074662;28;20052;-58
2023/03/27 01:50:28;;;;;;;2.50;1.15;;;;;;;19.74;50.48;99631.34;5074570;28;20475;-58
2023/03/27 01:53:05;;;;;;;2.42;0.88;;;;;;;19.72;50.33;99620.75;5074540;28;20052;-58
2023/03/27 01:55:37;;;;;;;2.05;0.98;;;;;;;19.71;50.17;99616.38;5075631;28;20045;-58
2023/03/27 01:58:16;;;;;;;2.65;1.08;;;;;;;19.72;50.31;99611.84;5074189;28;20048;-58
2023/03/27 02:00:49;;;;;;;4.00;1.23;;;;;;;19.71;50.22;99612.88;5073858;28;20065;-58
2023/03/27 02:03:26;;;;;;;1.90;1.02;;;;;;;19.71;50.27;99608.34;5074496;28;20076;-58
2023/03/27 02:06:00;;;;;;;3.15;1.00;;;;;;;19.70;50.23;99606.66;5074505;28;20106;-47
2023/03/27 02:08:43;;;;;;;2.45;1.10;;;;;;;19.70;50.13;99603.97;5075587;28;20048;-49
2023/03/27 02:11:15;;;;;;;2.05;1.10;;;;;;;19.70;50.15;99597.78;5074200;28;20053;-50
2023/03/27 02:13:49;;;;;;;5.10;1.33;;;;;;;19.70;50.12;99605.81;5074216;28;20502;-51
2023/03/27 02:16:22;;;;;;;2.80;1.27;;;;;;;19.69;49.87;99605.00;5073808;28;20368;-50
2023/03/27 02:19:00;;;;;;;2.97;1.20;;;;;;;19.70;50.12;99606.66;5073893;28;20410;-51
2023/03/27 02:21:30;;;;;;;2.92;1.40;;;;;;;19.70;49.95;99603.97;5075172;28;20428;-51
2023/03/27 02:24:01;;;;;;;3.10;1.02;;;;;;;19.69;49.99;99607.66;5074002;28;20056;-49
2023/03/27 02:26:29;;;;;;;2.17;1.20;;;;;;;19.69;49.95;99615.72;5073260;28;20055;-57
2023/03/27 02:29:08;;;;;;;3.40;1.10;;;;;;;19.69;49.93;99617.56;5075001;28;20048;-58
2023/03/27 02:31:53;;;;;;;1.63;0.90;;;;;;;19.68;49.76;99624.75;5073871;28;20052;-58
2023/03/27 02:34:30;;;;;;;2.72;1.38;;;;;;;19.69;49.80;99631.00;5073776;28;20507;-57
2023/03/27 02:37:24;;;;;;;3.30;1.50;;;;;;;19.67;49.91;99631.16;5073833;28;20483;-58
2023/03/27 02:40:21;;;;;;;2.67;0.80;;;;;;;19.67;49.84;99633.84;5074834;28;20057;-58
2023/03/27 02:43:24;;;;;;;2.15;1.23;;;;;;;19.67;49.91;99631.16;5073668;28;20064;-58
2023/03/27 02:45:52;;;;;;;4.57;1.02;;;;;;;19.66;49.62;99626.78;5073611;28;20044;-58
2023/03/27 02:48:38;;;;;;;3.72;1.10;;;;;;;19.66;49.78;99629.47;5073409;28;20060;-58
2023/03/27 02:51:14;;;;;;;3.17;1.25;;;;;;;19.67;49.72;99635.69;5074402;28;20510;-58
2023/03/27 02:53:48;;;;;;;1.85;0.90;;;;;;;19.65;49.75;99635.84;5073336;28;20052;-58
2023/03/27 02:56:19;;;;;;;2.08;0.85;;;;;;;19.66;49.63;99637.53;5074656;28;20048;-48
2023/03/27 02:58:58;;;;;;;2.65;1.25;;;;;;;19.65;49.64;99637.69;5073308;28;20059;-48
2023/03/27 03:01:36;;;;;;;2.45;0.98;;;;;;;19.65;49.76;99648.44;5073258;28;20398;-48
2023/03/27 03:04:27;;;;;;;2.67;1.20;;;;;;;19.64;49.70;99652.94;5073066;28;20055;-57
2023/03/27 03:07:21;;;;;;;3.40;1.50;;;;;;;19.63;49.82;99648.59;5074107;28;20064;-58
2023/03/27 03:09:49;;;;;;;2.22;0.98;;;;;;;19.64;49.57;99660.16;5072969;28;20056;-58
2023/03/27 03:12:16;;;;;;;1.88;1.00;;;;;;;19.64;49.63;99665.53;5073053;28;20052;-58
2023/03/27 03:14:45;;;;;;;2.17;0.95;;;;;;;19.64;49.77;99668.22;5072985;28;20049;-58
2023/03/27 03:17:14;;;;;;;3.10;0.90;;;;;;;19.64;49.75;99671.75;5073079;28;20417;-59
2023/03/27 03:19:42;;;;;;;2.92;1.20;;;;;;;19.63;49.64;99683.47;5072683;28;20059;-58
2023/03/27 03:22:10;;;;;;;2.15;1.02;;;;;;;19.63;49.56;99678.13;5073757;28;20053;-58
2023/03/27 03:24:40;;;;;;;2.60;1.10;;;;;;;19.62;49.56;99687.19;5073861;28;20045;-47
2023/03/27 03:27:13;;;;;;;1.52;0.90;;;;;;;19.63;49.30;99690.72;5072634;28;20052;-47
2023/03/27 03:29:55;;;;;;;2.63;0.90;;;;;;;19.62;49.31;99687.19;5072917;28;20055;-48
2023/03/27 03:32:26;;;;;;;2.42;1.05;;;;;;;19.62;49.38;99691.72;5072966;28;20044;-47
2023/03/27 03:34:55;;;;;;;1.92;0.88;;;;;;;19.63;49.32;99694.22;5072627;28;20048;-58
2023/03/27 03:37:27;;;;;;;2.15;1.05;;;;;;;19.61;49.43;99698.06;5072820;28;20048;-58
2023/03/27 03:39:56;;;;;;;2.67;1.35;;;;;;;19.61;49.38;99696.25;5072550;28;20059;-58
2023/03/27 03:42:24;;;;;;;2.63;1.20;;;;;;;19.61;49.24;99712.34;5072720;28;20055;-58
2023/03/27 03:44:52;;;;;;;4.22;1.10;;;;;;;19.61;49.13;99706.97;5073746;28;20366;-58
2023/03/27 03:47:21;;;;;;;1.95;1.00;;;;;;;19.59;49.23;99706.25;5072629;28;20052;-58
2023/03/27 03:49:49;;;;;;;3.35;1.25;;;;;;;19.59;49.21;99714.31;5072621;28;20056;-58
2023/03/27 03:52:17;;;;;;;4.20;1.48;;;;;;;19.59;49.09;99722.38;5073697;28;20053;-58
2023/03/27 03:54:44;;;;;;;2.42;1.20;;;;;;;19.60;49.29;99715.16;5072616;28;20057;-47
2023/03/27 03:57:13;;;;;;;2.80;1.25;;;;;;;19.59;49.08;99718.84;5072483;28;20386;-50
2023/03/27 03:59:42;;;;;;;2.78;1.00;;;;;;;19.59;49.17;99726.91;5072232;28;20063;-49
2023/03/27 04:02:33;;;;;;;2.25;0.93;;;;;;;19.59;49.13;99732.28;5074093;28;20059;-50
2023/03/27 04:05:06;;;;;;;3.15;1.58;;;;;;;19.58;49.15;99741.34;5073473;28;20045;-51
2023/03/27 04:07:38;;;;;;;1.73;0.88;;;;;;;19.58;49.16;99749.38;5072425;28;20426;-52
2023/03/27 04:10:29;;;;;;;3.00;1.08;;;;;;;19.58;49.30;99749.38;5072644;28;20056;-49
2023/03/27 04:12:59;;;;;;;2.47;1.17;;;;;;;19.56;49.39;99746.84;5072463;28;20052;-51
2023/03/27 04:15:29;;;;;;;3.20;1.33;;;;;;;19.58;49.54;99752.06;5073481;28;20052;-51
2023/03/27 04:18:18;;;;;;;3.58;1.20;;;;;;;19.58;49.61;99754.75;5084407;28;20063;-48
2023/03/27 04:20:48;;;;;;;2.20;1.30;;;;;;;19.57;49.36;99759.28;5076441;28;20053;-52
2023/03/27 04:23:17;;;;;;;2.40;1.15;;;;;;;19.58;49.40;99757.44;5076183;28;20059;-50
2023/03/27 04:25:46;;;;;;;2.67;1.00;;;;;;;19.58;49.44;99771.69;5077225;28;20048;-58
2023/03/27 04:28:20;;;;;;;3.58;1.00;;;;;;;19.57;49.75;99761.09;5075648;28;20498;-58
2023/03/27 04:30:56;;;;;;;2.00;0.90;;;;;;;19.57;49.65;99771.84;5075727;28;20494;-58
2023/03/27 04:33:27;;;;;;;3.23;1.30;;;;;;;19.57;49.77;99770.03;5083636;28;20048;-58
2023/03/27 04:36:16;;;;;;;2.92;1.20;;;;;;;19.57;49.63;99777.22;5083816;28;20048;-58
2023/03/27 04:39:01;;;;;;;2.80;0.77;;;;;;;19.58;49.43;99776.22;5075979;28;20056;-58
2023/03/27 04:41:31;;;;;;;4.20;1.40;;;;;;;19.57;49.63;99771.84;5075949;28;20056;-58
2023/03/27 04:43:59;;;;;;;3.70;1.10;;;;;;;19.56;49.47;99773.69;5075875;28;20055;-58
2023/03/27 04:46:28;;;;;;;3.60;1.00;;;;;;;19.56;49.73;99776.38;5075852;28;20375;-49
2023/03/27 04:49:01;;;;;;;3.55;1.20;;;;;;;19.56;49.78;99776.38;5075777;28;20056;-49
2023/03/27 04:51:51;;;;;;;2.42;1.13;;;;;;;19.56;49.60;99784.44;5075537;28;20398;-47
2023/03/27 04:54:21;;;;;;;3.30;1.25;;;;;;;19.55;49.73;99796.16;5075757;28;20060;-57
2023/03/27 04:56:49;;;;;;;2.67;1.00;;;;;;;19.55;49.75;99793.50;5075254;28;20049;-58
2023/03/27 04:59:16;;;;;;;2.80;1.50;;;;;;;19.56;49.59;99788.97;5076582;28;20047;-58
2023/03/27 05:01:54;;;;;;;2.10;1.13;;;;;;;19.55;49.59;99800.69;5075401;28;20056;-58
2023/03/27 05:04:29;;;;;;;1.88;0.85;;;;;;;19.55;49.53;99798.03;5075259;28;20051;-58
2023/03/27 05:07:18;;;;;;;4.35;1.20;;;;;;;19.54;49.64;99793.66;5075212;28;20048;-58
2023/03/27 05:09:46;;;;;;;2.35;1.08;;;;;;;19.55;49.45;99806.06;5075009;28;20053;-58
2023/03/27 05:12:14;;;;;;;2.10;0.82;;;;;;;19.52;49.55;99807.22;5074768;28;20071;-58
2023/03/27 05:14:48;;;;;;;3.47;1.30;;;;;;;19.53;49.61;99811.59;5075295;28;20382;-58
2023/03/27 05:17:39;;;;;;;2.95;0.93;;;;;;;19.53;49.37;99816.97;5082987;28;20048;-58
2023/03/27 05:20:13;;;;;;;2.40;0.93;;;;;;;19.52;49.55;99820.63;5075053;28;20049;-58
2023/03/27 05:22:42;;;;;;;2.83;0.85;;;;;;;19.53;49.48;99819.66;5076252;28;20059;-58
2023/03/27 05:25:27;;;;;;;1.90;0.90;;;;;;;19.52;49.37;99826.00;5076185;28;20458;-58
2023/03/27 05:27:56;;;;;;;2.03;1.10;;;;;;;19.51;49.41;99825.16;5073519;28;20410;-58
2023/03/27 05:30:28;;;;;;;4.67;1.13;;;;;;;19.50;49.53;99834.22;5075009;28;20057;-58
2023/03/27 05:33:16;;;;;;;2.53;1.02;;;;;;;19.50;49.47;99839.59;5075012;28;20403;-58
2023/03/27 05:35:47;;;;;;;2.33;1.02;;;;;;;19.51;49.39;99843.13;5074764;28;20048;-58
2023/03/27 05:38:14;;;;;;;3.20;1.15;;;;;;;19.50;49.25;99847.66;5076017;28;20044;-58
2023/03/27 05:41:06;;;;;;;3.20;1.10;;;;;;;19.50;49.16;99852.19;5074801;28;20075;-58
2023/03/27 05:43:38;;;;;;;2.07;0.97;;;;;;;19.49;49.43;99854.03;5074897;28;20491;-58
2023/03/27 05:46:05;;;;;;;2.13;1.30;;;;;;;19.49;49.41;99855.88;5074715;28;20044;-48
2023/03/27 05:48:34;;;;;;;2.15;1.10;;;;;;;19.49;49.26;99858.56;5074530;28;20044;-48
2023/03/27 05:51:04;;;;;;;3.67;1.35;;;;;;;19.48;49.09;99851.47;5075582;28;20055;-50
2023/03/27 05:53:35;;;;;;;3.80;1.30;;;;;;;19.49;49.29;99858.56;5074523;28;20048;-48
2023/03/27 05:56:20;;;;;;;2.47;1.20;;;;;;;19.48;49.27;99867.59;5074610;28;20052;-58
2023/03/27 05:58:52;;;;;;;2.40;1.17;;;;;;;19.48;49.17;99867.59;5074458;28;20053;-58
2023/03/27 06:01:22;;;;;;;3.03;1.10;;;;;;;19.48;49.24;99867.59;5074017;28;20048;-58
2023/03/27 06:03:54;;;;;;;2.92;1.35;;;;;;;19.48;49.37;99867.59;5074069;28;20071;-58
2023/03/27 06:06:34;;;;;;;3.78;1.10;;;;;;;19.48;49.10;99872.97;5074317;28;20055;-53
2023/03/27 06:09:02;;;;;;;3.38;1.30;;;;;;;19.47;49.20;99869.44;5073930;28;20426;-50
2023/03/27 06:11:31;;;;;;;2.30;0.90;;;;;;;19.47;49.01;99865.91;5074276;28;20604;-50
2023/03/27 06:13:58;;;;;;;2.15;1.05;;;;;;;19.48;48.99;99870.28;5074115;28;20044;-49
2023/03/27 06:16:42;;;;;;;3.45;1.38;;;;;;;19.47;48.89;99872.13;5073993;28;20516;-49
2023/03/27 06:19:38;;;;;;;2.22;1.00;;;;;;;19.47;48.87;99877.47;5073999;28;20407;-49
2023/03/27 06:22:06;;;;;;;2.33;1.23;;;;;;;19.46;48.89;99877.66;5073902;28;20521;-48
2023/03/27 06:24:34;;;;;;;3.35;1.60;;;;;;;19.48;48.75;99875.63;5074049;28;20048;-58
2023/03/27 06:27:03;;;;;;;1.70;1.00;;;;;;;19.47;48.82;99876.66;5073560;28;20395;-58
2023/03/27 06:29:36;;;;;;;2.88;1.27;;;;;;;19.47;48.94;99882.84;5073708;28;20049;-58
2023/03/27 06:32:03;;;;;;;2.80;1.33;;;;;;;19.47;48.93;99888.22;5074607;28;20051;-58
2023/03/27 06:34:36;;;;;;;;;;;;;;;19.47;48.86;99888.22;5074290;28;20055;-50
2023/03/27 06:37:23;;;;;;;2.80;1.10;;;;;;;19.47;49.02;99896.28;5073513;28;19924;-50
2023/03/27 06:39:53;;;;;;;2.65;1.30;;;;;;;19.48;49.13;99905.16;5073160;28;20403;-50
2023/03/27 06:42:21;;;;;;;3.17;1.10;;;;;;;19.47;49.31;99909.69;5074647;28;20051;-52
2023/03/27 06:44:58;;;;;;;4.47;1.50;;;;;;;19.47;49.35;99916.91;5073801;28;20059;-50
2023/03/27 06:47:57;;;;;;;2.30;1.08;;;;;;;19.47;49.42;99914.22;5074310;28;20375;-49
2023/03/27 06:50:48;;;;;;;4.80;1.30;;;;;;;19.47;49.46;99919.59;5074358;28;20044;-52
2023/03/27 06:53:16;;;;;;;5.72;1.60;;;;;;;19.49;49.47;99920.31;5051093;28;20045;-50
2023/03/27 06:55:48;;;;;;;5.53;1.88;;;;;;;19.50;48.77;99920.13;5069632;28;20053;-47
2023/03/27 06:58:17;;;;;;;3.08;1.67;;;;;;;19.51;48.95;99918.28;5065404;28;20045;-47
2023/03/27 07:00:47;;;;;;;4.57;1.70;;;;;;;19.53;48.61;99919.00;5073114;28;20052;-49
2023/03/27 07:03:20;;;;;;;3.45;1.48;;;;;;;19.55;48.55;99924.19;5081050;28;20051;-50
2023/03/27 07:06:02;;;;;;;3.10;1.40;;;;;;;19.56;48.52;99928.56;5081008;28;20055;-49
2023/03/27 07:08:41;;;;;;;4.75;1.40;;;;;;;19.57;49.16;99924.88;5073045;28;20048;-49
2023/03/27 07:11:08;;;;;;;3.58;1.70;;;;;;;19.58;49.48;99938.16;5072599;28;20066;-48
2023/03/27 07:13:43;;;;;;;2.90;1.65;;;;;;;19.60;49.77;99932.63;5072851;28;20067;-52
2023/03/27 07:16:20;;;;;;;5.13;2.40;;;;;;;19.61;47.84;99937.00;5072316;28;20051;-59
2023/03/27 07:18:47;;;;;;;5.57;2.45;;;;;;;19.61;47.40;99934.31;5072604;28;20387;-59
2023/03/27 07:21:15;;;;;;;5.32;1.73;;;;;;;19.61;47.46;99926.28;5072603;28;20055;-58
2023/03/27 07:23:44;;;;;;;6.47;2.33;;;;;;;19.61;46.77;99931.66;5072026;28;20537;-59
2023/03/27 07:26:17;;;;;;;5.95;2.60;;;;;;;19.60;46.08;99928.09;5072388;28;20052;-59
2023/03/27 07:29:02;;;;;;;6.05;2.28;;;;;;;19.59;45.97;99929.09;5072473;28;20048;-60
2023/03/27 07:31:31;;;;;;;6.43;2.20;;;;;;;19.58;45.98;99932.78;5072282;28;20052;-61
2023/03/27 07:34:19;;;;;;;4.40;1.88;;;;;;;19.59;46.32;99941.69;5073470;28;20048;-60
2023/03/27 07:37:22;;;;;;;5.30;1.88;;;;;;;19.58;46.55;99946.22;5072340;28;20059;-59
2023/03/27 07:40:12;;;;;;;4.20;1.65;;;;;;;19.60;47.82;99946.88;5080380;28;20505;-60
2023/03/27 07:42:44;;;;;;;3.97;1.70;;;;;;;19.61;47.77;99947.75;5072225;28;20556;-58
2023/03/27 07:45:19;;;;;;;2.78;1.60;;;;;;;19.62;48.12;99953.00;5071990;28;20051;-58
2023/03/27 07:47:48;;;;;;;6.20;1.95;;;;;;;19.65;48.03;99954.53;5072041;28;20055;-59
2023/03/27 07:50:19;;;;;;;8.07;1.98;;;;;;;19.65;48.11;99955.38;5071111;28;20055;-59
2023/03/27 07:52:48;;;;;;;3.05;1.23;;;;;;;19.68;48.63;99957.72;5072141;28;20407;-53
2023/03/27 07:55:18;;;;;;;5.00;1.98;;;;;;;19.68;48.13;99960.41;5072218;28;20044;-57
2023/03/27 07:57:57;;;;;;;7.05;2.15;;;;;;;19.70;47.48;99958.44;5072081;28;20063;-50
2023/03/27 08:00:32;;;;;;;4.97;2.00;;;;;;;19.70;47.64;99960.28;5071678;28;20057;-57
2023/03/27 08:03:10;;;;;;;5.13;1.85;;;;;;;19.70;46.84;99965.63;5072055;28;20056;-56
2023/03/27 08:05:42;;;;;;;4.13;1.52;;;;;;;19.69;47.06;99966.66;5071733;28;20052;-58
2023/03/27 08:08:12;;;;;;;3.15;1.30;;;;;;;19.69;47.26;99970.19;5071727;28;20044;-60
2023/03/27 08:10:55;;;;;;;5.13;1.67;;;;;;;19.69;47.35;99983.59;5071785;28;20506;-54
2023/03/27 08:13:25;;;;;;;3.67;1.40;;;;;;;19.70;47.72;99979.91;5072012;28;20514;-56
2023/03/27 08:16:26;;;;;;;3.08;1.40;;;;;;;19.71;47.78;99986.13;5055395;28;20671;-53
2023/03/27 08:18:56;;;;;;;4.90;1.73;;;;;;;19.72;47.65;99982.44;5070986;28;20053;-56
2023/03/27 08:21:25;;;;;;;5.82;1.52;;;;;;;19.72;47.87;99994.00;5071684;28;20059;-57
2023/03/27 08:23:54;;;;;;;2.95;1.40;;;;;;;19.73;47.74;99989.50;5071594;28;20418;-57
2023/03/27 08:26:26;;;;;;;10.10;1.73;;;;;;;19.74;47.96;99996.56;5078611;28;20052;-55
2023/03/27 08:28:58;;;;;;;5.38;1.70;;;;;;;19.75;47.32;99992.88;5071510;28;20052;-58
2023/03/27 08:31:30;;;;;;;3.58;1.50;;;;;;;19.74;47.10;99989.34;5071868;28;20053;-59
2023/03/27 08:34:01;;;;;;;4.22;1.60;;;;;;;19.75;46.93;99995.56;5072848;28;20487;-55
2023/03/27 08:36:46;;;;;;;3.70;1.02;;;;;;;19.74;46.35;99988.50;5071615;28;20055;-59
2023/03/27 08:39:15;;;;;;;2.53;1.30;;;;;;;19.74;46.27;99991.19;5071671;28;20075;-58
2023/03/27 08:41:54;;;;;;;5.30;1.60;;;;;;;19.74;46.12;99988.50;5071732;28;20056;-58
2023/03/27 08:44:43;;;;;;;6.03;1.10;;;;;;;19.73;46.21;99994.88;5072534;28;20064;-60
2023/03/27 08:47:23;;;;;;;3.55;1.77;;;;;;;19.73;45.91;99989.50;5071412;28;20064;-54
2023/03/27 08:50:10;;;;;;;5.03;1.38;;;;;;;19.74;46.69;99986.66;5071401;28;20075;-58
2023/03/27 08:52:45;;;;;;;;;;;;;;;19.76;46.95;99987.31;5064626;28;20053;-59
2023/03/27 08:55:33;;;;;;;2.10;1.02;;;;;;;19.77;46.47;99982.81;5051625;28;19928;-58
2023/03/27 08:58:21;;;;;;;2.88;1.20;;;;;;;19.78;46.39;99989.88;5051439;28;20052;-60
2023/03/27 09:01:10;;;;;;;3.65;1.25;;;;;;;19.78;46.20;99992.56;5051968;28;20384;-60
2023/03/27 09:04:03;;;;;;;3.45;1.40;;;;;;;19.79;46.28;99982.66;5055129;28;20056;-59
2023/03/27 09:06:51;;;;;;;3.17;1.17;;;;;;;19.78;46.08;99992.56;5059195;28;20613;-49
2023/03/27 09:09:57;;;;;;;2.78;0.80;;;;;;;19.78;45.95;99997.94;5055041;28;20045;-48
2023/03/27 09:12:51;;;;;;;4.00;0.98;;;;;;;19.78;46.03;99997.09;5054127;28;20506;-49
2023/03/27 09:15:27;;;;;;;3.42;1.10;;;;;;;19.79;45.81;99993.41;5054984;28;20049;-54
2023/03/27 09:18:03;;;;;;;4.22;1.25;;;;;;;19.78;45.58;99997.94;5054876;28;20049;-54
2023/03/27 09:20:42;;;;;;;4.40;1.40;;;;;;;19.78;45.71;100003.31;5054498;28;20118;-57
2023/03/27 09:23:20;;;;;;;3.95;1.00;;;;;;;19.79;45.85;100006.84;5055340;28;20049;-53
2023/03/27 09:26:12;;;;;;;2.10;1.08;;;;;;;19.78;46.22;100008.69;5071552;28;20111;-48
2023/03/27 09:29:04;;;;;;;2.78;1.13;;;;;;;19.79;45.45;100015.72;5074761;28;20052;-52
2023/03/27 09:31:45;;;;;;;2.38;1.42;;;;;;;19.80;46.54;100005.81;5074909;28;20048;-48
2023/03/27 09:34:24;;;;;;;2.28;1.10;;;;;;;19.81;45.96;100018.25;5074600;28;20065;-52
2023/03/27 09:36:53;;;;;;;2.50;1.05;;;;;;;19.80;48.40;100011.19;5075619;28;20495;-52
2023/03/27 09:39:26;;;;;;;4.45;1.00;;;;;;;19.78;49.07;100003.31;5074478;28;20040;-48
2023/03/27 09:42:10;;;;;;;4.13;0.80;;;;;;;19.78;47.49;100011.38;5074353;28;20502;-54
2023/03/27 09:44:41;;;;;;;2.58;0.90;;;;;;;19.76;43.93;99997.22;5073832;28;20060;-59
2023/03/27 09:47:14;;;;;;;4.90;1.00;;;;;;;19.76;42.93;100016.03;5074076;28;20044;-56
2023/03/27 09:49:49;;;;;;;2.15;0.90;;;;;;;19.74;42.50;100012.66;5074137;28;20048;-56
2023/03/27 09:52:34;;;;;;;5.38;0.82;;;;;;;19.70;41.75;100017.50;5074173;28;20067;-56
2023/03/27 09:55:28;;;;;;;3.20;1.05;;;;;;;19.69;41.30;100023.88;5073891;28;20045;-56
2023/03/27 09:58:26;;;;;;;3.30;0.77;;;;;;;19.66;40.65;100024.19;5073937;28;20052;-54
2023/03/27 10:01:12;;;;;;;2.83;0.98;;;;;;;19.63;40.90;100026.31;5070402;28;20059;-57
2023/03/27 10:03:47;;;;;;;1.80;0.90;;;;;;;19.61;40.38;100031.84;5074175;28;20052;-54
2023/03/27 10:06:30;;;;;;;1.85;0.80;;;;;;;19.61;39.91;100018.44;5074248;28;20053;-46
2023/03/27 10:09:26;;;;;;;3.60;0.75;;;;;;;19.62;40.92;100021.97;5073656;28;20502;-48
2023/03/27 10:12:06;;;;;;;1.63;0.70;;;;;;;19.60;40.26;100024.75;5073942;28;20056;-48
2023/03/27 10:14:44;;;;;;;3.25;0.73;;;;;;;19.60;40.12;100021.22;5073022;28;20055;-51
2023/03/27 10:17:25;;;;;;;;;;;;;;;19.60;40.57;100022.06;5073888;28;20127;-55
2023/03/27 10:20:14;;;;;;;2.33;0.95;;;;;;;19.61;39.99;100022.94;5073814;28;19920;-56
2023/03/27 10:22:54;;;;;;;2.65;0.80;;;;;;;19.61;40.16;100026.50;5073718;28;20056;-55
2023/03/27 10:25:33;;;;;;;3.55;0.90;;;;;;;19.62;40.40;100032.69;5073645;28;20049;-49
2023/03/27 10:28:22;;;;;;;1.55;0.50;;;;;;;19.62;40.12;100030.84;5073362;28;20044;-46
2023/03/27 10:31:33;;;;;;;1.42;0.60;;;;;;;19.63;40.28;100042.44;5081452;28;20047;-48
2023/03/27 10:34:31;;;;;;;1.23;0.68;;;;;;;19.61;39.66;100039.91;5073515;28;20494;-54
2023/03/27 10:37:34;;;;;;;1.90;0.50;;;;;;;19.62;39.77;100044.28;5072821;28;20052;-56
2023/03/27 10:40:28;;;;;;;1.33;0.60;;;;;;;19.62;39.86;100060.38;5073094;28;20063;-55
2023/03/27 10:43:06;;;;;;;1.23;0.43;;;;;;;19.63;40.07;100050.50;5072941;28;20048;-54
2023/03/27 10:46:10;;;;;;;0.77;0.38;;;;;;;19.63;40.58;100047.81;5073241;28;20048;-51
2023/03/27 10:48:37;;;;;;;4.07;0.73;;;;;;;19.64;40.28;100047.63;5068449;28;20044;-50
2023/03/27 10:51:24;;;;;;;1.77;0.60;;;;;;;19.66;40.57;100058.25;5072717;28;20067;-49
2023/03/27 10:54:35;;;;;;;1.60;0.55;;;;;;;19.66;40.69;100056.41;5058355;28;20060;-53
2023/03/27 10:57:26;;;;;;;1.15;0.45;;;;;;;19.66;40.38;100056.41;5072938;28;20055;-50
2023/03/27 11:00:06;;;;;;;2.25;0.65;;;;;;;19.68;40.76;100062.44;5073748;28;20506;-50
2023/03/27 11:02:52;;;;;;;3.15;0.70;;;;;;;19.68;40.78;100051.69;5072660;28;20064;-48
2023/03/27 11:05:26;;;;;;;1.90;0.55;;;;;;;19.69;40.92;100052.56;5072913;28;20056;-48
2023/03/27 11:08:07;;;;;;;1.45;0.52;;;;;;;19.69;41.36;100058.78;5072442;28;20056;-47
2023/03/27 11:10:40;;;;;;;1.75;0.63;;;;;;;19.70;40.74;100070.38;5072770;28;20390;-49
2023/03/27 11:13:18;;;;;;;1.98;0.70;;;;;;;19.71;41.01;100066.69;5072838;28;20063;-47
2023/03/27 11:16:20;;;;;;;1.75;0.70;;;;;;;19.70;40.55;100062.31;5072666;28;20068;-50
2023/03/27 11:19:09;;;;;;;2.08;0.60;;;;;;;19.70;40.42;100067.69;5080247;28;20052;-47
2023/03/27 11:22:08;;;;;;;1.88;0.82;;;;;;;19.70;40.82;100068.53;5073330;28;20055;-50
2023/03/27 11:25:24;;;;;;;1.95;0.60;;;;;;;19.71;40.90;100064.00;5072534;28;20491;-49
2023/03/27 11:28:06;;;;;;;2.47;0.60;;;;;;;19.70;41.13;100076.59;5054049;28;20155;-49
2023/03/27 11:31:12;;;;;;;2.58;0.68;;;;;;;19.72;41.03;100074.56;5053879;28;20053;-49
2023/03/27 11:33:51;;;;;;;1.77;0.32;;;;;;;19.73;41.56;100067.38;4975516;28;20097;-49
2023/03/27 11:36:33;;;;;;;1.75;0.70;;;;;;;19.72;41.83;100079.94;4975657;28;20062;-47
2023/03/27 11:39:19;;;;;;;4.30;0.70;;;;;;;19.73;42.00;100076.28;4975486;28;20046;-47
2023/03/27 11:42:01;;;;;;;2.97;0.60;;;;;;;19.74;42.04;100074.44;4975549;28;20156;-47
2023/03/27 11:44:29;;;;;;;1.52;0.63;;;;;;;19.74;42.27;100080.66;4991920;28;20054;-54
2023/03/27 11:47:34;;;;;;;1.38;0.40;;;;;;;19.75;43.05;100087.69;4971829;28;20061;-50
2023/03/27 11:50:15;;;;;;;2.50;0.52;;;;;;;19.75;42.28;100079.66;4975084;28;20054;-51
2023/03/27 11:53:07;;;;;;;4.10;1.40;;;;;;;19.76;42.79;100092.06;4974753;28;20061;-49
2023/03/27 11:56:09;;;;;;;2.25;0.77;;;;;;;19.78;42.68;100083.03;4949925;28;20069;-47
2023/03/27 11:59:03;;;;;;;1.58;0.60;;;;;;;19.76;42.79;100096.59;4974979;28;20521;-47
2023/03/27 12:01:41;;;;;;;3.55;0.55;;;;;;;19.76;43.31;100085.84;4982551;28;20050;-48
2023/03/27 12:04:31;;;;;;;4.15;0.90;;;;;;;19.76;43.49;100094.75;4994493;28;20050;-52
2023/03/27 12:07:56;;;;;;;5.43;0.95;;;;;;;19.75;43.51;100100.28;5032149;28;20057;-48
2023/03/27 12:10:34;;;;;;;4.78;1.10;;;;;;;19.75;43.13;100097.59;5072135;28;20063;-48
2023/03/27 12:13:43;;;;;;;11.63;0.85;;;;;;;19.75;43.40;100086.88;5071642;28;20384;-47
2023/03/27 12:17:17;;;;;;;2.88;0.82;;;;;;;19.74;43.52;100090.56;5070730;28;20063;-50
2023/03/27 12:19:52;;;;;;;4.78;0.60;;;;;;;19.75;43.96;100094.91;5052994;28;20041;-50
2023/03/27 12:22:42;;;;;;;3.65;0.60;;;;;;;19.75;43.62;100084.19;5053469;28;20056;-53
2023/03/27 12:25:23;;;;;;;4.25;0.65;;;;;;;19.76;43.30;100083.16;5066508;28;20503;-52